createdAt,value
2018-06-11T00:00:29.950Z,18.13
2018-06-11T00:01:29.743Z,18.13
2018-06-11T00:02:29.738Z,18.11
2018-06-11T00:03:29.734Z,18.11
2018-06-11T00:04:29.729Z,18.13
2018-06-11T00:05:29.725Z,18.15
2018-06-11T00:06:29.720Z,18.10
2018-06-11T00:07:29.716Z,18.10
2018-06-11T00:08:29.712Z,18.08
2018-06-11T00:09:29.707Z,18.10
2018-06-11T00:10:29.702Z,18.16
2018-06-11T00:11:29.701Z,18.04
2018-06-11T00:12:29.693Z,18.08
2018-06-11T00:13:29.689Z,18.03
2018-06-11T00:14:29.684Z,18.04
2018-06-11T00:15:29.680Z,18.00
2018-06-11T00:16:29.681Z,18.08
2018-06-11T00:17:29.671Z,18.00
2018-06-11T00:18:29.666Z,18.07
2018-06-11T00:19:29.661Z,18.01
2018-06-11T00:20:29.659Z,18.05
2018-06-11T00:21:29.654Z,17.97
2018-06-11T00:22:29.647Z,18.07
2018-06-11T00:23:29.646Z,18.08
2018-06-11T00:24:29.641Z,18.04
2018-06-11T00:25:29.635Z,17.97
2018-06-11T00:26:29.630Z,17.89
2018-06-11T00:27:29.625Z,17.97
2018-06-11T00:28:29.620Z,17.94
2018-06-11T00:29:29.615Z,17.95
2018-06-11T00:30:29.610Z,18.01
2018-06-11T00:31:29.606Z,17.98
2018-06-11T00:32:29.601Z,17.95
2018-06-11T00:33:29.597Z,17.94
2018-06-11T00:34:29.594Z,17.79
2018-06-11T00:35:29.587Z,17.87
2018-06-11T00:36:29.583Z,17.78
2018-06-11T00:37:29.578Z,17.80
2018-06-11T00:38:29.573Z,17.85
2018-06-11T00:39:29.568Z,17.72
2018-06-11T00:40:29.567Z,17.74
2018-06-11T00:41:29.559Z,17.72
2018-06-11T00:42:29.553Z,17.78
2018-06-11T00:43:29.549Z,17.72
2018-06-11T00:44:29.545Z,17.72
2018-06-11T00:45:29.541Z,17.72
2018-06-11T00:46:29.535Z,17.68
2018-06-11T00:47:29.535Z,17.68
2018-06-11T00:48:29.525Z,17.70
2018-06-11T00:49:29.521Z,17.71
2018-06-11T00:50:29.718Z,17.65
2018-06-11T00:51:29.511Z,17.68
2018-06-11T00:52:29.506Z,17.64
2018-06-11T00:53:29.505Z,17.63
2018-06-11T00:54:29.497Z,17.63
2018-06-11T00:55:29.494Z,17.64
2018-06-11T00:56:29.489Z,17.54
2018-06-11T00:57:29.485Z,17.59
2018-06-11T00:58:29.478Z,17.59
2018-06-11T00:59:29.473Z,17.54
2018-06-11T01:00:29.475Z,17.51
2018-06-11T01:01:29.465Z,17.46
2018-06-11T01:02:29.459Z,17.52
2018-06-11T01:03:29.454Z,17.46
2018-06-11T01:04:29.450Z,17.41
2018-06-11T01:05:29.445Z,17.42
2018-06-11T01:06:29.439Z,17.46
2018-06-11T01:07:29.435Z,17.39
2018-06-11T01:08:29.430Z,17.42
2018-06-11T01:09:29.426Z,17.38
2018-06-11T01:10:29.623Z,17.41
2018-06-11T01:11:29.416Z,17.36
2018-06-11T01:12:29.411Z,17.29
2018-06-11T01:13:29.406Z,17.34
2018-06-11T01:14:29.400Z,17.26
2018-06-11T01:15:29.399Z,17.26
2018-06-11T01:16:29.391Z,17.27
2018-06-11T01:17:29.387Z,17.20
2018-06-11T01:18:29.384Z,17.16
2018-06-11T01:19:29.376Z,17.23
2018-06-11T01:20:29.376Z,17.16
2018-06-11T01:21:29.369Z,17.11
2018-06-11T01:22:29.364Z,17.09
2018-06-11T01:23:29.357Z,17.06
2018-06-11T01:24:29.354Z,17.04
2018-06-11T01:25:29.347Z,17.04
2018-06-11T01:26:29.342Z,16.99
2018-06-11T01:27:29.337Z,17.01
2018-06-11T01:28:29.332Z,17.04
2018-06-11T01:29:29.329Z,16.94
2018-06-11T01:30:29.326Z,16.96
2018-06-11T01:31:29.322Z,17.02
2018-06-11T01:32:29.313Z,16.94
2018-06-11T01:33:29.316Z,16.93
2018-06-11T01:34:29.302Z,16.96
2018-06-11T01:35:29.297Z,16.90
2018-06-11T01:36:29.293Z,16.96
2018-06-11T01:37:29.294Z,16.97
2018-06-11T01:38:29.282Z,16.89
2018-06-11T01:39:29.277Z,16.91
2018-06-11T01:40:29.274Z,16.86
2018-06-11T01:41:29.268Z,16.99
2018-06-11T01:42:29.262Z,16.90
2018-06-11T01:43:29.257Z,16.84
2018-06-11T01:44:29.253Z,16.84
2018-06-11T01:45:29.247Z,16.91
2018-06-11T01:46:29.242Z,16.86
2018-06-11T01:47:29.237Z,16.86
2018-06-11T01:48:29.232Z,16.94
2018-06-11T01:49:29.228Z,16.84
2018-06-11T01:50:29.222Z,16.83
2018-06-11T01:51:29.218Z,16.75
2018-06-11T01:52:29.212Z,16.90
2018-06-11T01:53:29.211Z,16.91
2018-06-11T01:54:29.207Z,16.90
2018-06-11T01:55:29.196Z,16.87
2018-06-11T01:56:29.191Z,16.91
2018-06-11T01:57:29.188Z,16.87
2018-06-11T01:58:29.180Z,16.86
2018-06-11T01:59:29.175Z,16.86
2018-06-11T02:00:29.173Z,16.78
2018-06-11T02:01:29.170Z,16.89
2018-06-11T02:02:29.163Z,16.78
2018-06-11T02:03:29.155Z,16.83
2018-06-11T02:04:29.150Z,16.84
2018-06-11T02:05:29.146Z,16.75
2018-06-11T02:06:29.139Z,16.72
2018-06-11T02:07:29.137Z,16.74
2018-06-11T02:08:29.129Z,16.76
2018-06-11T02:09:29.124Z,16.61
2018-06-11T02:10:29.118Z,16.64
2018-06-11T02:11:29.115Z,16.72
2018-06-11T02:12:29.109Z,16.68
2018-06-11T02:13:29.105Z,16.68
2018-06-11T02:14:29.097Z,16.71
2018-06-11T02:15:29.092Z,16.74
2018-06-11T02:16:29.088Z,16.65
2018-06-11T02:17:29.082Z,16.66
2018-06-11T02:18:29.076Z,16.71
2018-06-11T02:19:29.071Z,16.72
2018-06-11T02:20:29.067Z,16.64
2018-06-11T02:21:29.067Z,16.61
2018-06-11T02:22:29.055Z,16.57
2018-06-11T02:23:29.051Z,16.61
2018-06-11T02:24:29.045Z,16.56
2018-06-11T02:25:29.040Z,16.51
2018-06-11T02:26:29.034Z,16.50
2018-06-11T02:27:29.032Z,16.47
2018-06-11T02:28:29.024Z,16.50
2018-06-11T02:29:29.019Z,16.47
2018-06-11T02:30:29.014Z,16.54
2018-06-11T02:31:29.009Z,16.47
2018-06-11T02:32:29.006Z,16.47
2018-06-11T02:33:29.002Z,16.43
2018-06-11T02:34:28.992Z,16.49
2018-06-11T02:35:28.988Z,16.41
2018-06-11T02:36:28.982Z,16.41
2018-06-11T02:37:28.977Z,16.39
2018-06-11T02:38:28.972Z,16.47
2018-06-11T02:39:28.965Z,16.46
2018-06-11T02:40:28.961Z,16.38
2018-06-11T02:41:28.955Z,16.38
2018-06-11T02:42:28.949Z,16.35
2018-06-11T02:43:28.946Z,16.33
2018-06-11T02:44:28.939Z,16.26
2018-06-11T02:45:28.934Z,16.23
2018-06-11T02:46:28.930Z,16.31
2018-06-11T02:47:28.922Z,16.26
2018-06-11T02:48:28.917Z,16.24
2018-06-11T02:49:28.912Z,16.24
2018-06-11T02:50:28.906Z,16.28
2018-06-11T02:51:28.904Z,16.31
2018-06-11T02:52:28.895Z,16.24
2018-06-11T02:53:28.898Z,16.23
2018-06-11T02:54:29.086Z,16.21
2018-06-11T02:55:28.883Z,16.29
2018-06-11T02:56:28.879Z,16.21
2018-06-11T02:57:28.868Z,16.26
2018-06-11T02:58:28.863Z,16.26
2018-06-11T02:59:28.862Z,16.21
2018-06-11T03:00:28.852Z,16.26
2018-06-11T03:01:28.847Z,16.17
2018-06-11T03:02:28.840Z,16.15
2018-06-11T03:03:28.840Z,16.05
2018-06-11T03:04:29.035Z,16.04
2018-06-11T03:05:28.825Z,16.12
2018-06-11T03:06:28.819Z,16.16
2018-06-11T03:07:28.818Z,16.08
2018-06-11T03:08:28.808Z,16.10
2018-06-11T03:09:28.803Z,16.05
2018-06-11T03:10:28.798Z,16.08
2018-06-11T03:11:28.791Z,16.12
2018-06-11T03:12:28.787Z,16.09
2018-06-11T03:13:28.780Z,16.10
2018-06-11T03:14:28.775Z,16.10
2018-06-11T03:15:28.850Z,16.10
2018-06-11T03:16:28.764Z,16.09
2018-06-11T03:17:28.759Z,16.05
2018-06-11T03:18:28.959Z,16.00
2018-06-11T03:19:28.748Z,16.02
2018-06-11T03:20:28.742Z,16.00
2018-06-11T03:21:28.737Z,15.95
2018-06-11T03:22:28.732Z,15.83
2018-06-11T03:23:28.729Z,15.95
2018-06-11T03:24:28.719Z,15.91
2018-06-11T03:25:28.714Z,15.90
2018-06-11T03:26:28.708Z,15.83
2018-06-11T03:27:28.701Z,15.84
2018-06-11T03:28:28.696Z,15.76
2018-06-11T03:29:28.691Z,15.75
2018-06-11T03:30:28.690Z,15.75
2018-06-11T03:31:28.679Z,15.77
2018-06-11T03:32:28.677Z,15.82
2018-06-11T03:33:28.668Z,15.77
2018-06-11T03:34:28.661Z,15.80
2018-06-11T03:35:28.660Z,15.80
2018-06-11T03:36:28.654Z,15.82
2018-06-11T03:37:28.649Z,15.80
2018-06-11T03:38:28.638Z,15.80
2018-06-11T03:39:28.632Z,15.76
2018-06-11T03:40:28.627Z,15.77
2018-06-11T03:41:28.621Z,15.83
2018-06-11T03:42:28.615Z,15.75
2018-06-11T03:43:28.613Z,15.86
2018-06-11T03:44:28.605Z,15.76
2018-06-11T03:45:28.598Z,15.77
2018-06-11T03:46:28.594Z,15.84
2018-06-11T03:47:28.587Z,15.84
2018-06-11T03:48:28.582Z,15.88
2018-06-11T03:49:28.580Z,15.91
2018-06-11T03:50:28.573Z,15.84
2018-06-11T03:51:28.563Z,15.88
2018-06-11T03:52:28.557Z,15.90
2018-06-11T03:53:28.552Z,15.86
2018-06-11T03:54:28.546Z,16.00
2018-06-11T03:55:28.540Z,15.97
2018-06-11T03:56:28.535Z,16.02
2018-06-11T03:57:28.533Z,15.97
2018-06-11T03:58:28.523Z,16.00
2018-06-11T03:59:28.518Z,16.05
2018-06-11T04:00:28.517Z,16.04
2018-06-11T04:01:28.511Z,16.00
2018-06-11T04:02:28.501Z,16.04
2018-06-11T04:03:28.496Z,16.12
2018-06-11T04:04:28.490Z,16.05
2018-06-11T04:05:28.487Z,16.05
2018-06-11T04:06:28.479Z,16.01
2018-06-11T04:07:28.477Z,15.98
2018-06-11T04:08:28.470Z,16.02
2018-06-11T04:09:28.463Z,16.01
2018-06-11T04:10:28.664Z,16.05
2018-06-11T04:11:28.455Z,16.00
2018-06-11T04:12:28.447Z,16.02
2018-06-11T04:13:28.443Z,16.04
2018-06-11T04:14:28.638Z,16.08
2018-06-11T04:15:28.430Z,16.05
2018-06-11T04:16:28.424Z,16.12
2018-06-11T04:17:28.420Z,16.08
2018-06-11T04:18:28.416Z,16.05
2018-06-11T04:19:28.449Z,16.12
2018-06-11T04:20:28.403Z,16.12
2018-06-11T04:21:28.397Z,16.24
2018-06-11T04:22:28.396Z,16.21
2018-06-11T04:23:28.387Z,16.23
2018-06-11T04:24:28.382Z,16.24
2018-06-11T04:25:28.377Z,16.24
2018-06-11T04:26:28.370Z,16.10
2018-06-11T04:27:28.365Z,16.04
2018-06-11T04:28:28.360Z,16.13
2018-06-11T04:29:28.358Z,16.23
2018-06-11T04:30:28.349Z,16.21
2018-06-11T04:31:28.345Z,16.23
2018-06-11T04:32:28.339Z,16.26
2018-06-11T04:33:28.337Z,16.38
2018-06-11T04:34:28.328Z,16.24
2018-06-11T04:35:28.323Z,16.21
2018-06-11T04:36:28.318Z,16.24
2018-06-11T04:37:28.321Z,16.23
2018-06-11T04:38:28.307Z,16.28
2018-06-11T04:39:28.305Z,16.29
2018-06-11T04:40:28.298Z,16.21
2018-06-11T04:41:28.296Z,16.32
2018-06-11T04:42:28.289Z,16.36
2018-06-11T04:43:28.282Z,16.42
2018-06-11T04:44:28.277Z,16.43
2018-06-11T04:45:28.274Z,16.58
2018-06-11T04:46:28.266Z,16.51
2018-06-11T04:47:28.261Z,16.51
2018-06-11T04:48:28.256Z,16.54
2018-06-11T04:49:28.251Z,16.58
2018-06-11T04:50:28.447Z,16.50
2018-06-11T04:51:28.242Z,16.50
2018-06-11T04:52:28.236Z,16.50
2018-06-11T04:53:28.258Z,16.57
2018-06-11T04:54:28.228Z,16.50
2018-06-11T04:55:28.223Z,16.54
2018-06-11T04:56:28.216Z,16.60
2018-06-11T04:57:28.211Z,16.53
2018-06-11T04:58:28.209Z,16.61
2018-06-11T04:59:28.205Z,16.53
2018-06-11T05:00:28.198Z,16.50
2018-06-11T05:01:28.197Z,16.53
2018-06-11T05:02:28.195Z,16.53
2018-06-11T05:04:28.177Z,16.60
2018-06-11T05:05:28.171Z,16.64
2018-06-11T05:06:28.172Z,16.68
2018-06-11T05:07:28.161Z,16.81
2018-06-11T05:08:28.159Z,16.84
2018-06-11T05:09:28.151Z,16.93
2018-06-11T05:10:28.146Z,16.96
2018-06-11T05:11:28.147Z,16.94
2018-06-11T05:12:28.137Z,16.93
2018-06-11T05:13:28.338Z,16.96
2018-06-11T05:14:28.130Z,16.97
2018-06-11T05:15:28.129Z,17.05
2018-06-11T05:16:28.119Z,17.09
2018-06-11T05:17:28.119Z,17.15
2018-06-11T05:18:28.112Z,17.19
2018-06-11T05:19:28.110Z,17.15
2018-06-11T05:20:28.102Z,17.27
2018-06-11T05:21:28.098Z,17.20
2018-06-11T05:22:28.092Z,17.24
2018-06-11T05:23:28.091Z,17.30
2018-06-11T05:24:28.085Z,17.14
2018-06-11T05:25:28.081Z,17.22
2018-06-11T05:26:28.074Z,17.20
2018-06-11T05:27:28.071Z,17.16
2018-06-11T05:28:28.066Z,17.15
2018-06-11T05:29:28.062Z,17.16
2018-06-11T05:30:28.059Z,17.15
2018-06-11T05:31:28.054Z,17.30
2018-06-11T05:32:28.049Z,17.29
2018-06-11T05:33:28.046Z,17.36
2018-06-11T05:34:28.047Z,17.41
2018-06-11T05:35:28.037Z,17.39
2018-06-11T05:36:28.033Z,17.49
2018-06-11T05:37:28.034Z,17.56
2018-06-11T05:38:28.030Z,17.57
2018-06-11T05:39:28.021Z,17.68
2018-06-11T05:40:28.143Z,17.59
2018-06-11T05:41:28.014Z,17.54
2018-06-11T05:42:28.011Z,17.39
2018-06-11T05:43:28.011Z,17.48
2018-06-11T05:44:28.002Z,17.34
2018-06-11T05:45:28.003Z,17.36
2018-06-11T05:46:27.995Z,17.27
2018-06-11T05:47:27.993Z,17.26
2018-06-11T05:48:27.988Z,17.16
2018-06-11T05:49:27.987Z,17.19
2018-06-11T05:50:27.979Z,17.26
2018-06-11T05:51:27.974Z,17.14
2018-06-11T05:52:27.974Z,17.06
2018-06-11T05:53:28.011Z,17.15
2018-06-11T05:54:27.966Z,17.24
2018-06-11T05:55:27.962Z,17.26
2018-06-11T05:56:27.956Z,17.34
2018-06-11T05:57:27.960Z,17.36
2018-06-11T05:58:27.947Z,17.44
2018-06-11T05:59:27.945Z,17.42
2018-06-11T06:00:27.939Z,17.44
2018-06-11T06:01:27.935Z,17.44
2018-06-11T06:02:27.930Z,17.54
2018-06-11T06:03:27.930Z,17.52
2018-06-11T06:04:27.923Z,17.51
2018-06-11T06:05:27.921Z,17.41
2018-06-11T06:06:27.915Z,17.42
2018-06-11T06:07:27.915Z,17.38
2018-06-11T06:08:27.908Z,17.44
2018-06-11T06:09:27.907Z,17.42
2018-06-11T06:10:27.904Z,17.44
2018-06-11T06:11:27.898Z,17.33
2018-06-11T06:12:27.893Z,17.41
2018-06-11T06:13:27.888Z,17.49
2018-06-11T06:14:27.892Z,17.42
2018-06-11T06:15:27.882Z,17.38
2018-06-11T06:16:27.877Z,17.42
2018-06-11T06:17:27.875Z,17.42
2018-06-11T06:18:27.868Z,17.48
2018-06-11T06:19:27.865Z,17.63
2018-06-11T06:20:27.862Z,17.59
2018-06-11T06:21:27.861Z,17.67
2018-06-11T06:22:27.856Z,17.71
2018-06-11T06:23:27.853Z,17.71
2018-06-11T06:24:27.847Z,17.82
2018-06-11T06:25:27.844Z,17.87
2018-06-11T06:26:27.842Z,17.92
2018-06-11T06:27:27.837Z,17.98
2018-06-11T06:28:27.834Z,18.08
2018-06-11T06:29:27.831Z,18.16
2018-06-11T06:30:27.829Z,18.08
2018-06-11T06:31:28.033Z,18.08
2018-06-11T06:32:27.826Z,18.15
2018-06-11T06:33:27.825Z,18.15
2018-06-11T06:34:27.932Z,18.19
2018-06-11T06:35:27.818Z,18.22
2018-06-11T06:36:27.811Z,18.16
2018-06-11T06:37:27.811Z,18.26
2018-06-11T06:38:27.804Z,18.38
2018-06-11T06:39:27.804Z,18.34
2018-06-11T06:40:27.852Z,18.33
2018-06-11T06:41:27.800Z,18.49
2018-06-11T06:42:27.795Z,18.49
2018-06-11T06:43:27.791Z,18.59
2018-06-11T06:44:27.791Z,18.66
2018-06-11T06:45:27.787Z,18.74
2018-06-11T06:46:27.788Z,18.58
2018-06-11T06:47:27.785Z,18.60
2018-06-11T06:48:27.780Z,18.53
2018-06-11T06:49:27.779Z,18.53
2018-06-11T06:50:27.777Z,18.56
2018-06-11T06:51:27.776Z,18.59
2018-06-11T06:52:27.769Z,18.63
2018-06-11T06:53:27.769Z,18.71
2018-06-11T06:54:27.765Z,18.80
2018-06-11T06:55:27.764Z,18.81
2018-06-11T06:56:27.761Z,18.86
2018-06-11T06:57:27.760Z,18.90
2018-06-11T06:58:27.762Z,19.00
2018-06-11T06:59:27.758Z,19.24
2018-06-11T07:00:27.757Z,19.16
2018-06-11T07:01:27.753Z,19.39
2018-06-11T07:02:27.751Z,19.36
2018-06-11T07:03:27.749Z,19.41
2018-06-11T07:04:27.749Z,19.52
2018-06-11T07:05:27.748Z,19.39
2018-06-11T07:06:27.746Z,19.58
2018-06-11T07:07:27.745Z,19.59
2018-06-11T07:08:27.745Z,19.69
2018-06-11T07:09:27.744Z,19.63
2018-06-11T07:10:27.742Z,19.52
2018-06-11T07:11:27.742Z,19.29
2018-06-11T07:12:27.741Z,19.26
2018-06-11T07:13:27.743Z,19.31
2018-06-11T07:14:27.738Z,19.34
2018-06-11T07:15:27.737Z,19.47
2018-06-11T07:16:27.738Z,19.39
2018-06-11T07:17:27.736Z,19.41
2018-06-11T07:18:27.733Z,19.41
2018-06-11T07:19:27.732Z,19.47
2018-06-11T07:20:27.731Z,19.47
2018-06-11T07:21:27.730Z,19.51
2018-06-11T07:22:27.728Z,19.58
2018-06-11T07:23:27.727Z,19.66
2018-06-11T07:24:27.726Z,19.73
2018-06-11T07:25:27.726Z,19.92
2018-06-11T07:26:27.725Z,19.89
2018-06-11T07:27:27.724Z,19.96
2018-06-11T07:28:27.722Z,20.11
2018-06-11T07:29:27.722Z,20.13
2018-06-11T07:30:27.720Z,20.06
2018-06-11T07:31:27.724Z,20.00
2018-06-11T07:32:27.772Z,19.96
2018-06-11T07:33:27.727Z,19.86
2018-06-11T07:34:27.716Z,19.85
2018-06-11T07:35:27.718Z,19.74
2018-06-11T07:36:27.714Z,19.70
2018-06-11T07:37:27.718Z,19.66
2018-06-11T07:38:27.914Z,19.48
2018-06-11T07:39:27.717Z,19.49
2018-06-11T07:40:27.709Z,19.54
2018-06-11T07:41:27.716Z,19.51
2018-06-11T07:42:27.707Z,19.48
2018-06-11T07:43:27.706Z,19.45
2018-06-11T07:44:27.708Z,19.58
2018-06-11T07:45:27.704Z,19.55
2018-06-11T07:46:27.702Z,19.55
2018-06-11T07:47:27.702Z,19.67
2018-06-11T07:48:27.704Z,20.06
2018-06-11T07:49:27.704Z,20.29
2018-06-11T07:50:27.702Z,20.34
2018-06-11T07:51:27.700Z,20.34
2018-06-11T07:52:27.705Z,20.32
2018-06-11T07:53:27.703Z,20.25
2018-06-11T07:54:27.699Z,20.21
2018-06-11T07:55:27.699Z,20.28
2018-06-11T07:56:27.700Z,20.40
2018-06-11T07:57:27.706Z,20.58
2018-06-11T07:58:27.700Z,20.87
2018-06-11T07:59:27.700Z,20.90
2018-06-11T08:00:27.701Z,20.85
2018-06-11T08:01:27.760Z,20.82
2018-06-11T08:02:27.702Z,20.84
2018-06-11T08:03:27.709Z,21.07
2018-06-11T08:04:27.708Z,21.20
2018-06-11T08:05:27.909Z,21.25
2018-06-11T08:06:27.709Z,21.39
2018-06-11T08:07:27.731Z,21.52
2018-06-11T08:08:27.718Z,21.51
2018-06-11T08:09:27.715Z,21.40
2018-06-11T08:10:27.715Z,21.48
2018-06-11T08:11:27.718Z,21.36
2018-06-11T08:12:27.721Z,21.24
2018-06-11T08:13:27.787Z,21.18
2018-06-11T08:14:27.725Z,21.06
2018-06-11T08:15:27.727Z,21.18
2018-06-11T08:16:27.727Z,21.07
2018-06-11T08:17:27.931Z,21.03
2018-06-11T08:18:27.729Z,21.03
2018-06-11T08:19:27.732Z,21.03
2018-06-11T08:20:27.733Z,21.14
2018-06-11T08:21:27.735Z,21.11
2018-06-11T08:22:27.741Z,21.20
2018-06-11T08:23:27.741Z,21.35
2018-06-11T08:25:27.743Z,21.85
2018-06-11T08:26:27.747Z,21.85
2018-06-11T08:27:27.783Z,22.02
2018-06-11T08:28:27.753Z,21.85
2018-06-11T08:29:27.756Z,21.67
2018-06-11T08:30:27.757Z,21.45
2018-06-11T08:31:27.760Z,21.33
2018-06-11T08:32:27.766Z,21.37
2018-06-11T08:33:27.967Z,21.35
2018-06-11T08:34:27.767Z,21.24
2018-06-11T08:35:27.772Z,21.39
2018-06-11T08:36:27.773Z,21.39
2018-06-11T08:37:27.775Z,21.18
2018-06-11T08:38:27.776Z,21.24
2018-06-11T08:39:27.779Z,21.25
2018-06-11T08:40:27.782Z,21.37
2018-06-11T08:41:27.784Z,21.57
2018-06-11T08:42:27.787Z,21.61
2018-06-11T08:43:27.790Z,21.72
2018-06-11T08:44:27.792Z,21.80
2018-06-11T08:45:27.799Z,21.93
2018-06-11T08:46:27.797Z,21.82
2018-06-11T08:47:27.799Z,21.77
2018-06-11T08:48:27.802Z,21.69
2018-06-11T08:49:27.804Z,21.69
2018-06-11T08:50:27.811Z,21.61
2018-06-11T08:51:27.807Z,21.40
2018-06-11T08:52:27.809Z,21.33
2018-06-11T08:53:27.815Z,21.39
2018-06-11T08:54:27.816Z,21.36
2018-06-11T08:55:27.813Z,21.40
2018-06-11T08:56:27.820Z,21.70
2018-06-11T08:57:27.818Z,21.79
2018-06-11T08:58:27.821Z,22.04
2018-06-11T08:59:27.821Z,22.26
2018-06-11T09:00:27.827Z,22.41
2018-06-11T09:01:27.827Z,22.26
2018-06-11T09:02:27.829Z,22.22
2018-06-11T09:03:27.834Z,22.23
2018-06-11T09:04:27.836Z,22.13
2018-06-11T09:05:27.839Z,22.06
2018-06-11T09:06:27.842Z,22.20
2018-06-11T09:07:27.847Z,22.47
2018-06-11T09:08:27.849Z,22.63
2018-06-11T09:09:27.853Z,22.80
2018-06-11T09:10:27.856Z,22.85
2018-06-11T09:11:27.864Z,22.91
2018-06-11T09:12:27.866Z,22.99
2018-06-11T09:13:28.074Z,23.09
2018-06-11T09:14:27.873Z,22.94
2018-06-11T09:15:27.881Z,22.90
2018-06-11T09:16:27.883Z,22.80
2018-06-11T09:17:27.891Z,22.87
2018-06-11T09:18:28.063Z,23.06
2018-06-11T09:19:27.896Z,23.12
2018-06-11T09:20:27.901Z,23.32
2018-06-11T09:21:27.906Z,23.46
2018-06-11T09:22:27.911Z,23.50
2018-06-11T09:23:27.919Z,23.58
2018-06-11T09:24:27.925Z,23.44
2018-06-11T09:25:27.930Z,23.41
2018-06-11T09:26:27.930Z,23.37
2018-06-11T09:27:27.937Z,23.18
2018-06-11T09:28:27.944Z,23.28
2018-06-11T09:29:27.948Z,23.25
2018-06-11T09:30:27.951Z,23.23
2018-06-11T09:31:27.958Z,23.28
2018-06-11T09:32:27.965Z,23.31
2018-06-11T09:33:27.972Z,23.24
2018-06-11T09:34:27.973Z,23.41
2018-06-11T09:35:27.978Z,23.51
2018-06-11T09:36:27.984Z,23.68
2018-06-11T09:37:27.993Z,23.63
2018-06-11T09:38:27.995Z,23.71
2018-06-11T09:39:28.003Z,23.92
2018-06-11T09:40:28.010Z,23.92
2018-06-11T09:41:28.015Z,23.98
2018-06-11T09:42:28.020Z,23.63
2018-06-11T09:43:28.028Z,23.68
2018-06-11T09:44:28.033Z,23.66
2018-06-11T09:45:28.042Z,23.56
2018-06-11T09:46:28.045Z,23.62
2018-06-11T09:47:28.052Z,23.65
2018-06-11T09:48:28.059Z,23.81
2018-06-11T09:49:28.073Z,23.92
2018-06-11T09:50:28.072Z,23.91
2018-06-11T09:51:28.080Z,24.05
2018-06-11T09:52:28.089Z,23.95
2018-06-11T09:53:28.095Z,24.14
2018-06-11T09:54:28.104Z,24.33
2018-06-11T09:55:28.110Z,24.57
2018-06-11T09:56:28.124Z,24.96
2018-06-11T09:57:28.132Z,25.14
2018-06-11T09:58:28.340Z,24.91
2018-06-11T09:59:28.153Z,24.86
2018-06-11T10:00:28.158Z,25.10
2018-06-11T10:01:28.168Z,25.17
2018-06-11T10:02:28.180Z,25.14
2018-06-11T10:03:28.188Z,25.21
2018-06-11T10:04:28.200Z,25.22
2018-06-11T10:05:28.256Z,25.28
2018-06-11T10:06:28.223Z,25.41
2018-06-11T10:07:28.232Z,25.51
2018-06-11T10:08:28.251Z,25.25
2018-06-11T10:09:28.255Z,25.13
2018-06-11T10:10:28.264Z,24.99
2018-06-11T10:11:28.277Z,24.99
2018-06-11T10:12:28.335Z,25.11
2018-06-11T10:13:28.303Z,25.23
2018-06-11T10:14:28.305Z,25.23
2018-06-11T10:15:28.527Z,25.23
2018-06-11T10:16:28.325Z,25.41
2018-06-11T10:17:28.537Z,25.43
2018-06-11T10:18:28.344Z,25.43
2018-06-11T10:19:28.354Z,25.35
2018-06-11T10:20:28.366Z,24.96
2018-06-11T10:21:28.372Z,24.95
2018-06-11T10:22:28.381Z,24.96
2018-06-11T10:23:28.395Z,25.16
2018-06-11T10:24:28.402Z,25.40
2018-06-11T10:25:28.611Z,25.40
2018-06-11T10:26:28.417Z,25.59
2018-06-11T10:27:28.426Z,25.62
2018-06-11T10:28:28.436Z,25.77
2018-06-11T10:29:28.446Z,25.95
2018-06-11T10:30:28.454Z,25.99
2018-06-11T10:31:28.465Z,25.99
2018-06-11T10:32:28.476Z,26.16
2018-06-11T10:33:28.485Z,26.15
2018-06-11T10:34:28.493Z,26.03
2018-06-11T10:35:28.506Z,26.45
2018-06-11T10:36:28.514Z,26.77
2018-06-11T10:37:28.525Z,26.90
2018-06-11T10:38:28.541Z,27.07
2018-06-11T10:39:28.551Z,27.07
2018-06-11T10:40:28.561Z,26.96
2018-06-11T10:41:28.576Z,26.96
2018-06-11T10:42:28.581Z,26.99
2018-06-11T10:43:28.595Z,27.17
2018-06-11T10:44:28.608Z,27.21
2018-06-11T10:45:28.634Z,27.20
2018-06-11T10:46:28.630Z,27.20
2018-06-11T10:47:28.642Z,26.95
2018-06-11T10:48:28.660Z,26.78
2018-06-11T10:49:28.673Z,26.80
2018-06-11T10:50:28.679Z,26.95
2018-06-11T10:51:28.899Z,27.12
2018-06-11T10:52:28.704Z,26.90
2018-06-11T10:53:28.717Z,26.88
2018-06-11T10:54:28.731Z,26.81
2018-06-11T10:55:28.746Z,26.83
2018-06-11T10:56:28.755Z,27.02
2018-06-11T10:57:28.767Z,27.17
2018-06-11T10:58:28.780Z,27.17
2018-06-11T10:59:28.800Z,27.39
2018-06-11T11:00:28.806Z,27.54
2018-06-11T11:01:28.819Z,27.26
2018-06-11T11:02:28.831Z,27.42
2018-06-11T11:03:29.046Z,27.32
2018-06-11T11:04:28.865Z,27.54
2018-06-11T11:05:28.871Z,27.77
2018-06-11T11:06:28.884Z,27.86
2018-06-11T11:07:28.896Z,27.93
2018-06-11T11:08:28.912Z,28.07
2018-06-11T11:09:28.924Z,27.90
2018-06-11T11:10:28.936Z,27.95
2018-06-11T11:11:28.949Z,28.04
2018-06-11T11:12:28.989Z,27.86
2018-06-11T11:13:28.977Z,27.37
2018-06-11T11:14:28.990Z,27.27
2018-06-11T11:15:29.003Z,27.25
2018-06-11T11:16:29.024Z,27.33
2018-06-11T11:17:29.033Z,27.49
2018-06-11T11:18:29.051Z,27.80
2018-06-11T11:19:29.056Z,27.59
2018-06-11T11:20:29.070Z,27.42
2018-06-11T11:21:29.084Z,27.37
2018-06-11T11:22:29.101Z,27.07
2018-06-11T11:23:29.109Z,26.99
2018-06-11T11:24:29.125Z,26.97
2018-06-11T11:25:29.136Z,27.02
2018-06-11T11:26:29.148Z,27.15
2018-06-11T11:27:29.161Z,27.15
2018-06-11T11:28:29.183Z,27.15
2018-06-11T11:29:29.194Z,26.90
2018-06-11T11:30:29.200Z,27.25
2018-06-11T11:31:29.215Z,27.42
2018-06-11T11:32:29.224Z,27.39
2018-06-11T11:33:29.237Z,27.36
2018-06-11T11:34:29.251Z,27.45
2018-06-11T11:35:29.261Z,27.52
2018-06-11T11:36:29.273Z,27.71
2018-06-11T11:37:29.288Z,27.68
2018-06-11T11:38:29.297Z,27.49
2018-06-11T11:39:29.312Z,27.37
2018-06-11T11:40:29.321Z,27.35
2018-06-11T11:41:29.334Z,27.26
2018-06-11T11:42:29.347Z,26.95
2018-06-11T11:43:29.354Z,26.71
2018-06-11T11:44:29.370Z,26.29
2018-06-11T11:45:29.382Z,26.36
2018-06-11T11:46:29.386Z,26.38
2018-06-11T11:47:29.601Z,26.21
2018-06-11T11:48:29.409Z,26.22
2018-06-11T11:49:29.418Z,26.47
2018-06-11T11:50:29.428Z,26.52
2018-06-11T11:51:29.438Z,26.53
2018-06-11T11:52:29.449Z,26.36
2018-06-11T11:53:29.458Z,26.38
2018-06-11T11:54:29.467Z,26.38
2018-06-11T11:55:29.477Z,26.51
2018-06-11T11:56:29.488Z,26.62
2018-06-11T11:57:29.526Z,26.71
2018-06-11T11:58:29.509Z,26.47
2018-06-11T11:59:29.514Z,26.22
2018-06-11T12:00:29.527Z,26.18
2018-06-11T12:01:29.531Z,26.05
2018-06-11T12:02:29.539Z,26.13
2018-06-11T12:03:29.548Z,26.15
2018-06-11T12:04:29.559Z,26.21
2018-06-11T12:05:29.565Z,26.41
2018-06-11T12:06:29.572Z,26.68
2018-06-11T12:07:29.582Z,27.00
2018-06-11T12:08:29.589Z,26.90
2018-06-11T12:09:29.598Z,26.74
2018-06-11T12:10:29.605Z,26.68
2018-06-11T12:11:29.614Z,26.71
2018-06-11T12:12:29.624Z,26.90
2018-06-11T12:13:29.631Z,27.14
2018-06-11T12:14:29.639Z,27.40
2018-06-11T12:15:29.653Z,27.30
2018-06-11T12:16:29.659Z,27.40
2018-06-11T12:17:29.667Z,27.20
2018-06-11T12:18:29.675Z,27.08
2018-06-11T12:19:29.686Z,27.20
2018-06-11T12:20:29.696Z,27.22
2018-06-11T12:21:29.704Z,27.37
2018-06-11T12:22:29.712Z,27.44
2018-06-11T12:23:29.719Z,27.74
2018-06-11T12:24:29.731Z,27.96
2018-06-11T12:25:29.737Z,27.86
2018-06-11T12:26:29.752Z,28.02
2018-06-11T12:27:29.755Z,28.30
2018-06-11T12:28:29.765Z,28.30
2018-06-11T12:29:29.774Z,28.54
2018-06-11T12:30:29.790Z,28.64
2018-06-11T12:31:29.793Z,28.67
2018-06-11T12:32:29.806Z,28.38
2018-06-11T12:33:29.812Z,28.11
2018-06-11T12:34:29.823Z,27.87
2018-06-11T12:35:29.832Z,28.15
2018-06-11T12:36:29.843Z,28.19
2018-06-11T12:37:29.859Z,28.08
2018-06-11T12:38:29.863Z,27.96
2018-06-11T12:39:29.873Z,27.73
2018-06-11T12:40:29.884Z,27.82
2018-06-11T12:41:29.902Z,27.74
2018-06-11T12:42:29.904Z,27.96
2018-06-11T12:43:29.920Z,28.17
2018-06-11T12:44:29.926Z,28.05
2018-06-11T12:45:29.934Z,27.51
2018-06-11T12:46:29.942Z,27.20
2018-06-11T12:47:29.955Z,27.11
2018-06-11T12:48:29.965Z,27.15
2018-06-11T12:49:29.969Z,26.95
2018-06-11T12:50:29.978Z,26.97
2018-06-11T12:51:29.991Z,27.17
2018-06-11T12:52:29.995Z,27.17
2018-06-11T12:53:30.009Z,27.35
2018-06-11T12:54:30.011Z,27.27